Andover, Minnesota
Current Conditions -  °F | °C
As of 8:45 PM on Wednesday 22 Oct 2014 (Local Time) from KANE Reporting Station
Overcast Overcast  
Wind Chill: 14°   Ceiling: 15000
Heat Index: 14°   Visibility: 10mi
Dew Point:   Wind: 12mph
Humidity: 59%   Direction: 160°SSE
Pressure: 30.04"   Gusts: 21mph
Location:  45.24°N, 93.31°W
Report Text: KANE 230145Z 16010G18KT 10SM SCT085 OVC150 14/06 A3004
Loading
Personal Weather Stations






























Interactive Weather Map
Tropical Storm Tracking
New forecast layout! Learn more

10-Day Weather Forecast

Advertisements
Track Severe Weather on mobile